Time;durP1;ratioP1;P1;durP2;ratioP2;P2;SDS_P1;SDS_P2;PMS_P1;PMS_P2;Temp;Humidity;BMP_temperature;BMP_pressure;BME280_temperature;BME280_humidity;BME280_pressure;Samples;Min_cycle;Max_cycle;Signal;HPM_P1;HPM_P2
2023/01/02 00:01:57;;;;;;;8.47;3.37;;;;;;;;;;5077603;28;20460;-72
2023/01/02 00:04:24;;;;;;;6.03;3.40;;;;;;;;;;5076361;28;20872;-73
2023/01/02 00:06:52;;;;;;;6.10;3.00;;;;;;;;;;5076842;28;20865;-72
2023/01/02 00:09:20;;;;;;;8.83;2.77;;;;;;;;;;5076531;28;20454;-72
2023/01/02 00:11:49;;;;;;;8.90;2.70;;;;;;;;;;5077570;28;20471;-72
2023/01/02 00:14:17;;;;;;;8.80;3.27;;;;;;;;;;5076419;28;20448;-73
2023/01/02 00:16:44;;;;;;;5.57;3.27;;;;;;;;;;5076616;28;20479;-73
2023/01/02 00:19:12;;;;;;;6.40;3.80;;;;;;;;;;5076729;28;20449;-73
2023/01/02 00:21:40;;;;;;;5.97;3.60;;;;;;;;;;5074184;28;20475;-73
2023/01/02 00:24:07;;;;;;;8.53;3.03;;;;;;;;;;5076333;28;20471;-73
2023/01/02 00:26:38;;;;;;;5.00;3.33;;;;;;;;;;5076397;28;20749;-73
2023/01/02 00:29:07;;;;;;;14.23;3.73;;;;;;;;;;5075823;28;20449;-73
2023/01/02 00:31:35;;;;;;;5.70;3.50;;;;;;;;;;5075651;28;20541;-73
2023/01/02 00:34:05;;;;;;;8.33;3.57;;;;;;;;;;5076223;28;20445;-73
2023/01/02 00:36:32;;;;;;;6.60;3.20;;;;;;;;;;5076188;28;20920;-73
2023/01/02 00:39:00;;;;;;;5.50;3.50;;;;;;;;;;5076194;28;20452;-73
2023/01/02 00:41:28;;;;;;;10.47;3.67;;;;;;;;;;5076119;28;20452;-72
2023/01/02 00:43:55;;;;;;;7.30;4.10;;;;;;;;;;5076062;28;20879;-73
2023/01/02 00:46:24;;;;;;;8.30;3.40;;;;;;;;;;5076130;28;20460;-73
2023/01/02 00:48:54;;;;;;;13.23;3.60;;;;;;;;;;5075749;28;20732;-73
2023/01/02 00:51:22;;;;;;;5.23;3.10;;;;;;;;;;5084963;28;20550;-73
2023/01/02 00:53:49;;;;;;;11.27;4.10;;;;;;;;;;5095362;28;20454;-72
2023/01/02 00:56:17;;;;;;;6.33;4.27;;;;;;;;;;5095947;28;20486;-73
2023/01/02 00:58:44;;;;;;;9.93;4.20;;;;;;;;;;5095645;28;20751;-73
2023/01/02 01:01:17;;;;;;;12.40;4.30;;;;;;;;;;5096743;28;20459;-73
2023/01/02 01:03:46;;;;;;;10.97;4.60;;;;;;;;;;5096484;28;20459;-72
2023/01/02 01:06:14;;;;;;;5.90;3.80;;;;;;;;;;5096238;28;20463;-72
2023/01/02 01:08:42;;;;;;;5.50;3.37;;;;;;;;;;5096286;28;20450;-73
2023/01/02 01:11:11;;;;;;;7.60;3.40;;;;;;;;;;5096075;28;20629;-72
2023/01/02 01:13:39;;;;;;;6.97;4.00;;;;;;;;;;5096590;28;20447;-72
2023/01/02 01:16:07;;;;;;;6.97;4.00;;;;;;;;;;5095847;28;20937;-73
2023/01/02 01:18:35;;;;;;;10.13;4.13;;;;;;;;;;5094826;28;20443;-72
2023/01/02 01:21:08;;;;;;;11.10;4.70;;;;;;;;;;5096573;28;20459;-72
2023/01/02 01:23:35;;;;;;;6.70;3.20;;;;;;;;;;5096469;28;20510;-73
2023/01/02 01:26:04;;;;;;;8.43;4.23;;;;;;;;;;5096735;28;20474;-73
2023/01/02 01:28:32;;;;;;;9.80;4.27;;;;;;;;;;5095521;28;20871;-72
2023/01/02 01:31:02;;;;;;;7.33;4.23;;;;;;;;;;5095533;28;20558;-72
2023/01/02 01:33:31;;;;;;;5.97;3.93;;;;;;;;;;5100718;28;20455;-73
2023/01/02 01:36:01;;;;;;;8.33;4.20;;;;;;;;;;5099573;28;20491;-72
2023/01/02 01:38:32;;;;;;;11.07;4.40;;;;;;;;;;5101349;28;20524;-72
2023/01/02 01:40:59;;;;;;;9.03;4.97;;;;;;;;;;5102055;28;20459;-72
2023/01/02 01:43:37;;;;;;;7.03;4.40;;;;;;;;;;5100557;28;20440;-72
2023/01/02 01:46:07;;;;;;;9.87;4.80;;;;;;;;;;5101051;28;20871;-73
2023/01/02 01:48:34;;;;;;;7.53;3.93;;;;;;;;;;5100673;28;20460;-72
2023/01/02 01:51:03;;;;;;;7.73;4.07;;;;;;;;;;5100146;28;20826;-71
2023/01/02 01:53:32;;;;;;;11.20;5.37;;;;;;;;;;5099908;28;20452;-72
2023/01/02 01:56:03;;;;;;;12.40;4.77;;;;;;;;;;5099915;28;20479;-73
2023/01/02 01:58:32;;;;;;;10.10;4.90;;;;;;;;;;5098772;28;20455;-73
2023/01/02 02:01:00;;;;;;;9.10;3.90;;;;;;;;;;5099901;28;20470;-73
2023/01/02 02:03:29;;;;;;;13.67;3.93;;;;;;;;;;5099634;28;20963;-73
2023/01/02 02:05:57;;;;;;;7.83;4.13;;;;;;;;;;5099781;28;20447;-73
2023/01/02 02:08:27;;;;;;;9.50;3.93;;;;;;;;;;5099044;28;20472;-73
2023/01/02 02:10:59;;;;;;;7.90;3.80;;;;;;;;;;5099427;28;20451;-73
2023/01/02 02:13:26;;;;;;;8.60;3.37;;;;;;;;;;5099151;28;20494;-73
2023/01/02 02:15:59;;;;;;;10.53;4.03;;;;;;;;;;5098605;28;20483;-72
2023/01/02 02:18:37;;;;;;;8.53;4.80;;;;;;;;;;5099934;28;20459;-72
2023/01/02 02:21:14;;;;;;;9.33;4.33;;;;;;;;;;5099299;28;20550;-73
2023/01/02 02:23:58;;;;;;;9.40;4.10;;;;;;;;;;5098819;28;20470;-73
2023/01/02 02:26:42;;;;;;;8.07;4.27;;;;;;;;;;5098805;28;20459;-72
2023/01/02 02:29:27;;;;;;;5.20;3.70;;;;;;;;;;5099063;28;20561;-72
2023/01/02 02:32:00;;;;;;;11.10;4.30;;;;;;;;;;5068780;28;20450;-73
2023/01/02 02:34:32;;;;;;;10.37;3.70;;;;;;;;;;5099434;28;20452;-72
2023/01/02 02:37:02;;;;;;;7.93;3.80;;;;;;;;;;5099771;28;20483;-73
2023/01/02 02:39:36;;;;;;;9.93;4.30;;;;;;;;;;5100504;28;20460;-73
2023/01/02 02:42:07;;;;;;;10.47;3.93;;;;;;;;;;5099584;28;20461;-73
2023/01/02 02:44:42;;;;;;;5.10;2.70;;;;;;;;;;5098724;28;20464;-73
2023/01/02 02:47:15;;;;;;;8.33;3.70;;;;;;;;;;5099726;28;20708;-73
2023/01/02 02:49:46;;;;;;;7.97;3.40;;;;;;;;;;5099550;28;20460;-73
2023/01/02 02:52:17;;;;;;;6.60;3.20;;;;;;;;;;5099298;28;20459;-73
2023/01/02 02:54:47;;;;;;;7.13;3.37;;;;;;;;;;5098345;28;20859;-73
2023/01/02 02:57:16;;;;;;;8.17;4.47;;;;;;;;;;5098545;28;20571;-72
2023/01/02 02:59:44;;;;;;;6.83;3.07;;;;;;;;;;5098516;28;20459;-73
2023/01/02 03:02:15;;;;;;;5.90;2.83;;;;;;;;;;5098363;28;20862;-73
2023/01/02 03:04:44;;;;;;;7.80;4.00;;;;;;;;;;5097492;28;20486;-73
2023/01/02 03:07:17;;;;;;;8.13;3.20;;;;;;;;;;5098378;28;20741;-72
2023/01/02 03:09:50;;;;;;;4.63;2.73;;;;;;;;;;5098336;28;20520;-73
2023/01/02 03:12:21;;;;;;;11.90;3.73;;;;;;;;;;5098359;28;20685;-73
2023/01/02 03:14:55;;;;;;;12.80;3.97;;;;;;;;;;5098522;28;20463;-73
2023/01/02 03:17:28;;;;;;;3.90;2.77;;;;;;;;;;5097786;28;20758;-73
2023/01/02 03:19:59;;;;;;;11.40;3.10;;;;;;;;;;5098184;28;20554;-73
2023/01/02 03:22:30;;;;;;;6.00;3.23;;;;;;;;;;5098157;28;20443;-73
2023/01/02 03:24:58;;;;;;;11.00;3.60;;;;;;;;;;5097608;28;20474;-72
2023/01/02 03:27:27;;;;;;;8.17;3.77;;;;;;;;;;5098296;28;20468;-72
2023/01/02 03:29:58;;;;;;;4.93;2.87;;;;;;;;;;5097946;28;20463;-72
2023/01/02 03:32:29;;;;;;;4.67;2.83;;;;;;;;;;5097683;28;20459;-73
2023/01/02 03:34:57;;;;;;;9.27;3.47;;;;;;;;;;5098370;28;20727;-73
2023/01/02 03:37:27;;;;;;;11.20;5.60;;;;;;;;;;5097884;28;20536;-73
2023/01/02 03:39:55;;;;;;;10.27;3.20;;;;;;;;;;5097721;28;20724;-73
2023/01/02 03:42:26;;;;;;;6.70;2.73;;;;;;;;;;5098035;28;20455;-73
2023/01/02 03:44:56;;;;;;;8.30;3.33;;;;;;;;;;5097484;28;20456;-73
2023/01/02 03:47:27;;;;;;;9.43;3.43;;;;;;;;;;5098108;28;20554;-74
2023/01/02 03:49:58;;;;;;;8.10;3.63;;;;;;;;;;5098109;28;20871;-73
2023/01/02 03:52:26;;;;;;;7.13;3.50;;;;;;;;;;5097432;28;20452;-74
2023/01/02 03:54:54;;;;;;;12.30;3.53;;;;;;;;;;5098167;28;20462;-73
2023/01/02 03:57:26;;;;;;;4.87;2.70;;;;;;;;;;5097465;28;20487;-73
2023/01/02 03:59:58;;;;;;;12.00;3.90;;;;;;;;;;5097153;28;20547;-73
2023/01/02 04:02:28;;;;;;;7.60;3.27;;;;;;;;;;5098831;28;20462;-74
2023/01/02 04:04:58;;;;;;;5.73;3.30;;;;;;;;;;5097267;28;20463;-73
2023/01/02 04:07:28;;;;;;;7.90;3.50;;;;;;;;;;5096987;28;20864;-73
2023/01/02 04:09:56;;;;;;;4.90;3.40;;;;;;;;;;5097337;28;20463;-73
2023/01/02 04:12:24;;;;;;;7.13;2.80;;;;;;;;;;5097002;28;20893;-74
2023/01/02 04:14:53;;;;;;;10.47;2.90;;;;;;;;;;5097264;28;20562;-74
2023/01/02 04:17:23;;;;;;;5.47;2.80;;;;;;;;;;5096918;28;20502;-73
2023/01/02 04:19:53;;;;;;;4.93;2.47;;;;;;;;;;5096529;28;20465;-73
2023/01/02 04:22:25;;;;;;;8.63;3.20;;;;;;;;;;5097410;28;20762;-72
2023/01/02 04:24:55;;;;;;;12.63;3.47;;;;;;;;;;5097487;28;20835;-73
2023/01/02 04:27:25;;;;;;;10.17;3.47;;;;;;;;;;5096755;28;20467;-73
2023/01/02 04:29:53;;;;;;;6.30;3.27;;;;;;;;;;5095499;28;20463;-73
2023/01/02 04:32:23;;;;;;;6.30;3.40;;;;;;;;;;5097346;28;20451;-73
2023/01/02 04:34:51;;;;;;;8.83;3.30;;;;;;;;;;5097129;28;20460;-73
2023/01/02 04:37:31;;;;;;;6.97;3.43;;;;;;;;;;5096843;28;20582;-73
2023/01/02 04:40:00;;;;;;;9.97;3.50;;;;;;;;;;5096697;28;20729;-73
2023/01/02 04:42:28;;;;;;;12.60;2.97;;;;;;;;;;5096303;28;20743;-73
2023/01/02 04:44:56;;;;;;;5.13;3.20;;;;;;;;;;5096456;28;20495;-73
2023/01/02 04:47:23;;;;;;;7.10;3.40;;;;;;;;;;5096900;28;20864;-73
2023/01/02 04:49:51;;;;;;;7.13;3.07;;;;;;;;;;5096729;28;20520;-73
2023/01/02 04:52:20;;;;;;;5.43;2.50;;;;;;;;;;5096395;28;20460;-73
2023/01/02 04:54:49;;;;;;;6.47;3.03;;;;;;;;;;5096564;28;20847;-73
2023/01/02 04:57:20;;;;;;;5.23;2.90;;;;;;;;;;5096324;28;20546;-73
2023/01/02 04:59:48;;;;;;;5.90;2.90;;;;;;;;;;5096762;28;20460;-73
2023/01/02 05:02:15;;;;;;;8.33;3.20;;;;;;;;;;5095905;28;20964;-73
2023/01/02 05:04:43;;;;;;;6.80;3.93;;;;;;;;;;5096467;28;20456;-73
2023/01/02 05:07:11;;;;;;;6.00;3.47;;;;;;;;;;5096241;28;20471;-73
2023/01/02 05:09:39;;;;;;;6.17;3.20;;;;;;;;;;5096997;28;20451;-73
2023/01/02 05:12:08;;;;;;;8.73;3.30;;;;;;;;;;5095909;28;20459;-73
2023/01/02 05:14:35;;;;;;;7.33;3.53;;;;;;;;;;5095599;28;20749;-73
2023/01/02 05:17:03;;;;;;;6.80;2.80;;;;;;;;;;5096831;28;20487;-73
2023/01/02 05:19:31;;;;;;;11.67;3.27;;;;;;;;;;5096548;28;20717;-73
2023/01/02 05:24:44;;;;;;;5.03;2.80;;;;;;;;;;5095999;28;20439;-73
2023/01/02 05:27:13;;;;;;;7.30;3.73;;;;;;;;;;5096185;28;20502;-73
2023/01/02 05:29:41;;;;;;;11.17;3.50;;;;;;;;;;5096668;28;20474;-73
2023/01/02 05:32:08;;;;;;;8.33;2.87;;;;;;;;;;5096036;28;20459;-73
2023/01/02 05:34:39;;;;;;;6.03;2.70;;;;;;;;;;5090995;28;20474;-73
2023/01/02 05:37:07;;;;;;;7.30;2.63;;;;;;;;;;5057251;28;20499;-73
2023/01/02 05:39:34;;;;;;;14.10;3.40;;;;;;;;;;5076841;28;20891;-73
2023/01/02 05:42:02;;;;;;;7.90;3.30;;;;;;;;;;5058326;28;20548;-73
2023/01/02 05:44:33;;;;;;;9.97;2.73;;;;;;;;;;5057359;28;20468;-73
2023/01/02 05:47:00;;;;;;;6.43;2.90;;;;;;;;;;5057649;28;20465;-73
2023/01/02 05:49:31;;;;;;;10.40;3.20;;;;;;;;;;5055662;28;20461;-73
2023/01/02 05:51:58;;;;;;;6.73;3.00;;;;;;;;;;5056655;28;20458;-73
2023/01/02 05:54:26;;;;;;;6.93;3.27;;;;;;;;;;5055913;28;20475;-73
2023/01/02 05:56:54;;;;;;;8.40;3.90;;;;;;;;;;5057862;28;20749;-73
2023/01/02 05:59:21;;;;;;;5.60;3.30;;;;;;;;;;5060463;28;20825;-73
2023/01/02 06:01:50;;;;;;;8.53;3.27;;;;;;;;;;5075175;28;20475;-73
2023/01/02 06:04:18;;;;;;;5.90;3.00;;;;;;;;;;5065101;28;20526;-73
2023/01/02 06:06:46;;;;;;;9.07;3.70;;;;;;;;;;5056148;28;20889;-73
2023/01/02 06:09:14;;;;;;;7.67;3.27;;;;;;;;;;5056358;28;20469;-73
2023/01/02 06:11:43;;;;;;;5.03;3.43;;;;;;;;;;5059512;28;20482;-73
2023/01/02 06:14:10;;;;;;;8.10;4.03;;;;;;;;;;5055824;28;20491;-73
2023/01/02 06:16:38;;;;;;;7.50;3.00;;;;;;;;;;5055817;28;20492;-73
2023/01/02 06:19:11;;;;;;;9.57;4.07;;;;;;;;;;5057265;28;20457;-73
2023/01/02 06:21:38;;;;;;;11.73;3.70;;;;;;;;;;5063819;28;20541;-73
2023/01/02 06:24:07;;;;;;;6.63;3.33;;;;;;;;;;5066329;28;20485;-73
2023/01/02 06:26:35;;;;;;;10.00;3.37;;;;;;;;;;5059504;28;20504;-73
2023/01/02 06:29:02;;;;;;;4.03;2.97;;;;;;;;;;5059197;28;20453;-73
2023/01/02 06:31:32;;;;;;;4.50;3.00;;;;;;;;;;5058841;28;20445;-73
2023/01/02 06:34:00;;;;;;;8.13;3.50;;;;;;;;;;5058854;28;20469;-74
2023/01/02 06:36:30;;;;;;;6.83;3.50;;;;;;;;;;5058130;28;20912;-74
2023/01/02 06:39:03;;;;;;;7.23;3.33;;;;;;;;;;5060843;28;20724;-73
2023/01/02 06:41:31;;;;;;;7.20;4.80;;;;;;;;;;5071115;28;20463;-73
2023/01/02 06:44:06;;;;;;;9.97;3.87;;;;;;;;;;5078107;28;20810;-74
2023/01/02 06:46:34;;;;;;;7.10;3.20;;;;;;;;;;5060454;28;20475;-73
2023/01/02 06:49:01;;;;;;;9.30;4.60;;;;;;;;;;5065105;28;20465;-73
2023/01/02 06:51:30;;;;;;;5.23;3.00;;;;;;;;;;5057742;28;20728;-73
2023/01/02 06:53:58;;;;;;;7.40;3.00;;;;;;;;;;5057761;28;20453;-73
2023/01/02 06:56:25;;;;;;;4.27;3.10;;;;;;;;;;5056048;28;20472;-72
2023/01/02 06:58:53;;;;;;;3.60;2.77;;;;;;;;;;5069066;28;20468;-72
2023/01/02 07:01:22;;;;;;;16.17;5.00;;;;;;;;;;5066871;28;20517;-72
2023/01/02 07:03:49;;;;;;;5.80;3.40;;;;;;;;;;5058374;28;20523;-72
2023/01/02 07:06:18;;;;;;;6.80;4.03;;;;;;;;;;5057787;28;21028;-72
2023/01/02 07:08:47;;;;;;;8.17;3.17;;;;;;;;;;5057546;28;21019;-72
2023/01/02 07:11:16;;;;;;;7.77;3.40;;;;;;;;;;5064166;28;20725;-72
2023/01/02 07:13:47;;;;;;;7.33;3.97;;;;;;;;;;5056862;28;20471;-72
2023/01/02 07:16:16;;;;;;;8.47;2.50;;;;;;;;;;5056862;28;20454;-72
2023/01/02 07:18:45;;;;;;;8.00;3.00;;;;;;;;;;5057373;28;20493;-72
2023/01/02 07:21:13;;;;;;;8.63;3.80;;;;;;;;;;5058164;28;20854;-72
2023/01/02 07:23:41;;;;;;;8.23;3.93;;;;;;;;;;5058957;28;20488;-73
2023/01/02 07:26:14;;;;;;;4.03;2.40;;;;;;;;;;5058074;28;20476;-73
2023/01/02 07:28:41;;;;;;;5.10;3.00;;;;;;;;;;5057587;28;20469;-73
2023/01/02 07:31:13;;;;;;;5.43;2.63;;;;;;;;;;5055386;28;20450;-73
2023/01/02 07:33:41;;;;;;;8.60;4.10;;;;;;;;;;5065158;28;20463;-73
2023/01/02 07:36:12;;;;;;;10.10;3.27;;;;;;;;;;5070800;28;20530;-75
2023/01/02 07:38:43;;;;;;;10.23;2.57;;;;;;;;;;5076199;28;20540;-73
2023/01/02 07:41:16;;;;;;;7.43;2.77;;;;;;;;;;5071874;28;20467;-73
2023/01/02 07:43:45;;;;;;;5.93;3.10;;;;;;;;;;5063364;28;20522;-73
2023/01/02 07:46:13;;;;;;;9.43;4.60;;;;;;;;;;5063218;28;20517;-73
2023/01/02 07:48:44;;;;;;;10.53;3.73;;;;;;;;;;5075225;28;20958;-70
2023/01/02 07:51:14;;;;;;;8.33;3.67;;;;;;;;;;5074256;28;20463;-71
2023/01/02 07:53:43;;;;;;;6.10;2.83;;;;;;;;;;5059688;28;21061;-74
2023/01/02 07:56:22;;;;;;;6.07;2.70;;;;;;;;;;5064356;28;20445;-72
2023/01/02 07:58:58;;;;;;;7.20;4.10;;;;;;;;;;5055191;28;20921;-74
2023/01/02 08:01:26;;;;;;;4.63;2.47;;;;;;;;;;5054231;28;20456;-71
2023/01/02 08:03:53;;;;;;;4.20;2.37;;;;;;;;;;5066834;28;20459;-72
2023/01/02 08:06:21;;;;;;;6.10;3.03;;;;;;;;;;5061043;28;20473;-73
2023/01/02 08:08:49;;;;;;;5.67;3.03;;;;;;;;;;5055732;28;20462;-72
2023/01/02 08:11:21;;;;;;;8.60;2.53;;;;;;;;;;5072758;28;20453;-72
2023/01/02 08:13:49;;;;;;;6.77;2.30;;;;;;;;;;5073658;28;20959;-72
2023/01/02 08:16:20;;;;;;;3.67;2.10;;;;;;;;;;5070944;28;20549;-72
2023/01/02 08:18:53;;;;;;;4.93;3.03;;;;;;;;;;5070719;28;20476;-73
2023/01/02 08:21:21;;;;;;;6.70;2.53;;;;;;;;;;5064955;28;20754;-72
2023/01/02 08:23:49;;;;;;;7.00;2.73;;;;;;;;;;5060962;28;20466;-73
2023/01/02 08:26:19;;;;;;;7.03;2.07;;;;;;;;;;5071754;28;20445;-72
2023/01/02 08:28:47;;;;;;;5.83;2.90;;;;;;;;;;5066733;28;20480;-72
2023/01/02 08:31:16;;;;;;;6.30;2.60;;;;;;;;;;5063721;28;20445;-72
2023/01/02 08:33:46;;;;;;;5.67;2.23;;;;;;;;;;5071632;28;20496;-72
2023/01/02 08:36:14;;;;;;;4.50;2.60;;;;;;;;;;5064105;28;20497;-72
2023/01/02 08:38:42;;;;;;;4.70;2.27;;;;;;;;;;5065606;28;20953;-72
2023/01/02 08:41:16;;;;;;;7.00;2.97;;;;;;;;;;5068680;28;20913;-72
2023/01/02 08:43:44;;;;;;;7.83;2.73;;;;;;;;;;5067819;28;20556;-72
2023/01/02 08:46:11;;;;;;;5.57;2.63;;;;;;;;;;5058670;28;20460;-72
2023/01/02 08:48:39;;;;;;;3.77;2.30;;;;;;;;;;5061092;28;20467;-72
2023/01/02 08:51:14;;;;;;;5.70;2.90;;;;;;;;;;5068124;28;20937;-72
2023/01/02 08:53:47;;;;;;;9.17;2.80;;;;;;;;;;5056201;28;20528;-73
2023/01/02 08:56:23;;;;;;;5.90;2.90;;;;;;;;;;5069684;28;20471;-72
2023/01/02 08:58:53;;;;;;;3.93;2.30;;;;;;;;;;5071612;28;20586;-71
2023/01/02 09:01:29;;;;;;;6.50;2.60;;;;;;;;;;5054863;28;20465;-72
2023/01/02 09:03:59;;;;;;;8.43;3.10;;;;;;;;;;5065254;28;20483;-72
2023/01/02 09:06:29;;;;;;;8.53;3.03;;;;;;;;;;5070764;28;20936;-72
2023/01/02 09:09:10;;;;;;;10.40;2.57;;;;;;;;;;5064095;28;20475;-71
2023/01/02 09:11:39;;;;;;;5.10;2.20;;;;;;;;;;5065187;28;20448;-72
2023/01/02 09:14:11;;;;;;;6.00;2.60;;;;;;;;;;5067106;28;20484;-72
2023/01/02 09:16:42;;;;;;;9.20;3.50;;;;;;;;;;5063759;28;21045;-72
2023/01/02 09:19:12;;;;;;;6.00;2.40;;;;;;;;;;5063199;28;20773;-72
2023/01/02 09:21:43;;;;;;;5.30;2.87;;;;;;;;;;5065460;28;20534;-73
2023/01/02 09:24:18;;;;;;;4.40;2.20;;;;;;;;;;5074786;28;21031;-72
2023/01/02 09:26:48;;;;;;;6.20;2.70;;;;;;;;;;5075709;28;20464;-72
2023/01/02 09:29:16;;;;;;;6.83;2.50;;;;;;;;;;5058911;28;20466;-72
2023/01/02 09:31:44;;;;;;;8.40;1.90;;;;;;;;;;5066711;28;20477;-72
2023/01/02 09:34:11;;;;;;;8.70;5.03;;;;;;;;;;5066551;28;20460;-73
2023/01/02 09:36:45;;;;;;;6.80;2.63;;;;;;;;;;5068605;28;20888;-73
2023/01/02 09:39:13;;;;;;;4.70;2.10;;;;;;;;;;5056037;28;20489;-73
2023/01/02 09:41:43;;;;;;;11.07;2.60;;;;;;;;;;5062611;28;21063;-74
2023/01/02 09:44:20;;;;;;;8.80;2.40;;;;;;;;;;5055251;28;20959;-73
2023/01/02 09:46:59;;;;;;;7.10;2.83;;;;;;;;;;5054538;28;20461;-73
2023/01/02 09:49:30;;;;;;;5.37;1.87;;;;;;;;;;5054808;28;20460;-73
2023/01/02 09:51:59;;;;;;;6.93;2.33;;;;;;;;;;5052696;28;20897;-73
2023/01/02 09:54:29;;;;;;;5.37;2.30;;;;;;;;;;5072859;28;20491;-73
2023/01/02 09:57:06;;;;;;;7.87;2.87;;;;;;;;;;5077552;28;20458;-73
2023/01/02 09:59:37;;;;;;;3.60;1.30;;;;;;;;;;5058779;28;20503;-73
2023/01/02 10:02:12;;;;;;;6.83;2.20;;;;;;;;;;5057661;28;20854;-73
2023/01/02 10:04:47;;;;;;;8.80;3.37;;;;;;;;;;5060758;28;20868;-72
2023/01/02 10:07:21;;;;;;;3.33;1.93;;;;;;;;;;5061096;28;20464;-73
2023/01/02 10:10:00;;;;;;;3.83;1.80;;;;;;;;;;5066651;28;20479;-73
2023/01/02 10:12:35;;;;;;;11.40;2.40;;;;;;;;;;5058117;28;20468;-73
2023/01/02 10:15:05;;;;;;;5.80;2.50;;;;;;;;;;5058314;28;20464;-73
2023/01/02 10:17:37;;;;;;;2.10;1.40;;;;;;;;;;5059548;28;20472;-72
2023/01/02 10:20:09;;;;;;;4.40;2.17;;;;;;;;;;5072063;28;20546;-73
2023/01/02 10:22:41;;;;;;;5.27;2.20;;;;;;;;;;5075360;28;20915;-72
2023/01/02 10:25:12;;;;;;;3.90;1.93;;;;;;;;;;5059113;28;20467;-73
2023/01/02 10:27:42;;;;;;;7.63;2.43;;;;;;;;;;5063784;28;20539;-73
2023/01/02 10:30:18;;;;;;;5.13;1.87;;;;;;;;;;5069451;28;20513;-72
2023/01/02 10:32:49;;;;;;;5.83;1.90;;;;;;;;;;5068614;28;20469;-74
2023/01/02 10:35:23;;;;;;;2.87;1.47;;;;;;;;;;5072705;28;20537;-72
2023/01/02 10:37:56;;;;;;;3.33;1.33;;;;;;;;;;5058719;28;20667;-72
2023/01/02 10:40:24;;;;;;;3.83;2.40;;;;;;;;;;5057362;28;20465;-74
2023/01/02 10:42:55;;;;;;;5.27;2.30;;;;;;;;;;5057604;28;20469;-74
2023/01/02 10:45:32;;;;;;;4.03;1.90;;;;;;;;;;5056211;28;20488;-74
2023/01/02 10:48:03;;;;;;;14.40;3.87;;;;;;;;;;5058133;28;20473;-74
2023/01/02 10:50:39;;;;;;;4.23;1.93;;;;;;;;;;5057387;28;20477;-74
2023/01/02 10:53:09;;;;;;;4.10;2.20;;;;;;;;;;5056232;28;21134;-73
2023/01/02 10:55:39;;;;;;;5.00;1.97;;;;;;;;;;5057902;28;20469;-73
2023/01/02 10:58:07;;;;;;;6.47;2.53;;;;;;;;;;5056055;28;20501;-73
2023/01/02 11:00:40;;;;;;;5.07;2.07;;;;;;;;;;5056209;28;20497;-72
2023/01/02 11:03:14;;;;;;;6.13;2.40;;;;;;;;;;5058467;28;20560;-72
2023/01/02 11:05:45;;;;;;;5.20;2.07;;;;;;;;;;5056707;28;20476;-73
2023/01/02 11:08:18;;;;;;;8.17;2.70;;;;;;;;;;5063219;28;20470;-73
2023/01/02 11:10:46;;;;;;;3.87;2.03;;;;;;;;;;5060038;28;20465;-72
2023/01/02 11:13:17;;;;;;;5.70;1.60;;;;;;;;;;5076081;28;20539;-73
2023/01/02 11:15:49;;;;;;;3.67;1.70;;;;;;;;;;5073536;28;20963;-72
2023/01/02 11:18:20;;;;;;;3.00;1.97;;;;;;;;;;5058299;28;20492;-72
2023/01/02 11:20:49;;;;;;;9.50;2.37;;;;;;;;;;5058191;28;20567;-72
2023/01/02 11:23:21;;;;;;;4.10;1.90;;;;;;;;;;5054499;28;20843;-72
2023/01/02 11:25:50;;;;;;;3.17;1.53;;;;;;;;;;5069636;28;20465;-73
2023/01/02 11:28:19;;;;;;;2.90;1.53;;;;;;;;;;5055048;28;20470;-71
2023/01/02 11:30:48;;;;;;;5.50;2.20;;;;;;;;;;5055066;28;20546;-73
2023/01/02 11:33:27;;;;;;;3.23;2.03;;;;;;;;;;5055211;28;20473;-73
2023/01/02 11:35:55;;;;;;;3.40;1.70;;;;;;;;;;5054493;28;20547;-71
2023/01/02 11:38:27;;;;;;;3.30;2.47;;;;;;;;;;5055833;28;20485;-68
2023/01/02 11:40:57;;;;;;;9.47;2.40;;;;;;;;;;5064190;28;20483;-70
2023/01/02 11:46:19;;;;;;;5.60;2.30;;;;;;;;;;5055200;28;20748;-67
2023/01/02 11:48:47;;;;;;;7.63;2.63;;;;;;;;;;5054942;28;20509;-70
2023/01/02 11:51:19;;;;;;;7.03;2.80;;;;;;;;;;5055713;28;20465;-69
2023/01/02 11:53:51;;;;;;;3.80;1.13;;;;;;;;;;5055354;28;20454;-69
2023/01/02 11:56:26;;;;;;;5.07;1.80;;;;;;;;;;5054121;28;20491;-70
2023/01/02 11:58:59;;;;;;;5.30;1.57;;;;;;;;;;5066786;28;20476;-71
2023/01/02 12:01:42;;;;;;;3.37;1.50;;;;;;;;;;5062483;28;20496;-70
2023/01/02 12:04:13;;;;;;;2.53;1.10;;;;;;;;;;5056595;28;20464;-71
2023/01/02 12:06:49;;;;;;;2.60;1.03;;;;;;;;;;5059036;28;20725;-71
2023/01/02 12:09:26;;;;;;;4.40;0.97;;;;;;;;;;5056051;28;20818;-71
2023/01/02 12:12:05;;;;;;;3.00;1.30;;;;;;;;;;5064891;28;20469;-73
2023/01/02 12:14:45;;;;;;;2.80;1.77;;;;;;;;;;5054535;28;20469;-71
2023/01/02 12:17:19;;;;;;;2.17;1.30;;;;;;;;;;5054466;28;20848;-70
2023/01/02 12:20:00;;;;;;;4.67;1.30;;;;;;;;;;5061088;28;20477;-70
2023/01/02 12:22:47;;;;;;;2.27;1.23;;;;;;;;;;5067175;28;20474;-70
2023/01/02 12:25:33;;;;;;;2.10;1.03;;;;;;;;;;5067555;28;20453;-72
2023/01/02 12:28:05;;;;;;;2.03;1.57;;;;;;;;;;5058704;28;20453;-72
2023/01/02 12:30:38;;;;;;;5.00;1.20;;;;;;;;;;5061967;28;21205;-71
2023/01/02 12:33:20;;;;;;;2.97;2.70;;;;;;;;;;5070991;28;20456;-68
2023/01/02 12:36:03;;;;;;;1.60;0.70;;;;;;;;;;5074468;28;20456;-68
2023/01/02 12:38:39;;;;;;;2.00;0.80;;;;;;;;;;5061666;28;20492;-67
2023/01/02 12:41:14;;;;;;;2.60;0.90;;;;;;;;;;5056330;28;20480;-67
2023/01/02 12:44:00;;;;;;;2.23;1.00;;;;;;;;;;5057185;28;21066;-67
2023/01/02 12:46:34;;;;;;;1.40;0.60;;;;;;;;;;5060004;28;20498;-69
2023/01/02 12:49:15;;;;;;;1.63;0.70;;;;;;;;;;5059369;28;20492;-68
2023/01/02 12:51:44;;;;;;;1.73;0.90;;;;;;;;;;5073079;28;20466;-69
2023/01/02 12:54:21;;;;;;;1.73;0.63;;;;;;;;;;5071490;28;20460;-71
2023/01/02 12:56:54;;;;;;;1.90;0.70;;;;;;;;;;5054428;28;20956;-70
2023/01/02 12:59:35;;;;;;;1.60;0.70;;;;;;;;;;5064159;28;20484;-69
2023/01/02 13:02:05;;;;;;;1.40;0.53;;;;;;;;;;5060207;28;20641;-71
2023/01/02 13:04:34;;;;;;;1.60;0.70;;;;;;;;;;5066304;28;20959;-72
2023/01/02 13:07:08;;;;;;;1.77;0.60;;;;;;;;;;5074379;28;20468;-74
2023/01/02 13:09:37;;;;;;;2.10;0.60;;;;;;;;;;5062131;28;20484;-74
2023/01/02 13:12:15;;;;;;;1.30;0.50;;;;;;;;;;5068843;28;20446;-73
2023/01/02 13:14:47;;;;;;;1.70;0.87;;;;;;;;;;5052570;28;20544;-75
2023/01/02 13:17:28;;;;;;;4.00;1.47;;;;;;;;;;5053594;28;20464;-74
2023/01/02 13:20:05;;;;;;;2.47;0.73;;;;;;;;;;5053740;28;20524;-72
2023/01/02 13:22:47;;;;;;;2.53;0.90;;;;;;;;;;5058833;28;20892;-73
2023/01/02 13:25:16;;;;;;;2.30;1.20;;;;;;;;;;5056139;28;20511;-73
2023/01/02 13:27:47;;;;;;;1.70;0.50;;;;;;;;;;5070856;28;20464;-72
2023/01/02 13:30:36;;;;;;;1.60;0.63;;;;;;;;;;5057942;28;20471;-75
2023/01/02 13:33:08;;;;;;;1.20;0.50;;;;;;;;;;5056886;28;20534;-69
2023/01/02 13:35:41;;;;;;;1.23;0.50;;;;;;;;;;5060915;28;20547;-69
2023/01/02 13:38:23;;;;;;;1.50;0.70;;;;;;;;;;5069415;28;20492;-68
2023/01/02 13:40:55;;;;;;;2.63;0.60;;;;;;;;;;5070545;28;20457;-67
2023/01/02 13:43:26;;;;;;;1.40;0.50;;;;;;;;;;5056385;28;20469;-72
2023/01/02 13:45:55;;;;;;;1.80;0.70;;;;;;;;;;5064419;28;20453;-72
2023/01/02 13:48:28;;;;;;;3.03;0.60;;;;;;;;;;5059161;28;20469;-72
2023/01/02 13:50:59;;;;;;;1.77;0.50;;;;;;;;;;5057285;28;20552;-72
2023/01/02 13:53:37;;;;;;;1.33;0.73;;;;;;;;;;5066795;28;20481;-72
2023/01/02 13:56:09;;;;;;;1.43;0.60;;;;;;;;;;5056500;28;20454;-72
2023/01/02 13:58:44;;;;;;;1.90;0.70;;;;;;;;;;5057392;28;20452;-71
2023/01/02 14:01:42;;;;;;;1.77;0.60;;;;;;;;;;5056941;28;20471;-70
2023/01/02 14:04:35;;;;;;;1.63;0.60;;;;;;;;;;5057048;28;20469;-70
2023/01/02 14:07:35;;;;;;;1.27;0.40;;;;;;;;;;4983701;28;20489;-70
2023/01/02 14:10:16;;;;;;;1.40;0.60;;;;;;;;;;5066946;28;20912;-71
2023/01/02 14:12:47;;;;;;;1.50;0.60;;;;;;;;;;5065106;28;20453;-72
2023/01/02 14:15:22;;;;;;;1.30;0.50;;;;;;;;;;5056593;28;21057;-70
2023/01/02 14:17:53;;;;;;;1.50;0.50;;;;;;;;;;5063974;28;20552;-72
2023/01/02 14:20:26;;;;;;;1.40;0.57;;;;;;;;;;5074826;28;20496;-71
2023/01/02 14:22:55;;;;;;;2.77;1.27;;;;;;;;;;5068598;28;20759;-71
2023/01/02 14:25:28;;;;;;;1.30;0.60;;;;;;;;;;5060459;28;20464;-71
2023/01/02 14:27:57;;;;;;;1.73;0.80;;;;;;;;;;5062582;28;20530;-72
2023/01/02 14:30:33;;;;;;;2.13;0.67;;;;;;;;;;5067767;28;20556;-73
2023/01/02 14:33:02;;;;;;;1.30;0.60;;;;;;;;;;5066109;28;20551;-71
2023/01/02 14:35:32;;;;;;;1.57;0.70;;;;;;;;;;5057968;28;20459;-71
2023/01/02 14:38:15;;;;;;;1.37;0.53;;;;;;;;;;5055450;28;20535;-75
2023/01/02 14:40:45;;;;;;;2.13;0.80;;;;;;;;;;5056591;28;20995;-72
2023/01/02 14:43:30;;;;;;;1.20;0.50;;;;;;;;;;5086494;28;21184;-73
2023/01/02 14:46:06;;;;;;;3.63;0.50;;;;;;;;;;5067625;28;20477;-73
2023/01/02 14:48:37;;;;;;;1.70;0.77;;;;;;;;;;5056857;28;20930;-73
2023/01/02 14:51:11;;;;;;;3.60;0.90;;;;;;;;;;5056207;28;20500;-72
2023/01/02 14:53:43;;;;;;;2.30;0.97;;;;;;;;;;5056355;28;20607;-72
2023/01/02 14:56:26;;;;;;;2.40;0.80;;;;;;;;;;5055189;28;20469;-73
2023/01/02 14:58:54;;;;;;;2.00;0.80;;;;;;;;;;5057688;28;20558;-72
2023/01/02 15:01:29;;;;;;;2.90;0.90;;;;;;;;;;5075109;28;20557;-72
2023/01/02 15:04:02;;;;;;;10.63;1.10;;;;;;;;;;5065847;28;20817;-71
2023/01/02 15:06:40;;;;;;;1.40;0.60;;;;;;;;;;5064449;28;21050;-71
2023/01/02 15:09:16;;;;;;;2.03;1.13;;;;;;;;;;5067336;28;20521;-72
2023/01/02 15:14:44;;;;;;;1.50;0.60;;;;;;;;;;5059030;28;20480;-73